KBBD/BBD METAR and TAF weather

Enter ICAO airport designator
Station Type Date Time Source
KBBD METAR 2024/06/15 22:55 UTC NOAA

KBBD 152255Z AUTO 13011KT 10SM CLR 33/16 A2985 RMK AO2


Station Type Date Time Source
KBBD Decoded METAR 2024/06/15 22:55 UTC NOAA

Brady, Curtis Field Airport, TX, United States (KBBD) 31-10-45N 099-19-26W
Jun 15, 2024 - 06:55 PM EDT / 2024.06.15 2255 UTC
Wind: from the SE (130 degrees) at 13 MPH (11 KT):0
Visibility: 10 mile(s):0
Sky conditions: clear
Temperature: 91 F (33 C)
Dew Point: 60 F (16 C)
Relative Humidity: 36%
Pressure (altimeter): 29.85 in. Hg (1010 hPa)
ob: KBBD 152255Z AUTO 13011KT 10SM CLR 33/16 A2985 RMK AO2
cycle: 23

Station Type Date Time Source
KBBD TAF 2024/06/15 20:36 UTC NOAA